createdAt,value
2023-02-23T00:01:28.108Z,14.40
2023-02-23T00:03:57.804Z,12.17
2023-02-23T00:06:30.006Z,14.77
2023-02-23T00:09:01.321Z,10.77
2023-02-23T00:11:30.356Z,11.83
2023-02-23T00:13:59.123Z,11.80
2023-02-23T00:16:27.821Z,15.03
2023-02-23T00:19:00.653Z,14.63
2023-02-23T00:21:32.535Z,10.53
2023-02-23T00:24:03.123Z,17.67
2023-02-23T00:26:35.318Z,12.33
2023-02-23T00:29:06.370Z,16.83
2023-02-23T00:31:35.419Z,17.20
2023-02-23T00:34:05.651Z,19.87
2023-02-23T00:36:37.676Z,16.33
2023-02-23T00:39:18.306Z,15.03
2023-02-23T00:41:47.700Z,13.57
2023-02-23T00:44:16.747Z,13.07
2023-02-23T00:46:49.310Z,18.10
2023-02-23T00:49:17.900Z,17.57
2023-02-23T00:51:48.234Z,16.87
2023-02-23T00:54:18.253Z,24.60
2023-02-23T00:56:47.429Z,20.63
2023-02-23T00:59:16.562Z,19.70
2023-02-23T01:01:45.639Z,21.70
2023-02-23T01:04:15.452Z,19.83
2023-02-23T01:06:44.298Z,17.07
2023-02-23T01:09:27.341Z,19.33
2023-02-23T01:11:57.798Z,16.40
2023-02-23T01:14:26.554Z,16.67
2023-02-23T01:16:55.272Z,18.17
2023-02-23T01:19:24.069Z,18.83
2023-02-23T01:21:52.779Z,18.80
2023-02-23T01:24:22.732Z,18.87
2023-02-23T01:26:51.459Z,22.80
2023-02-23T01:29:20.089Z,18.10
2023-02-23T01:31:51.395Z,20.37
2023-02-23T01:34:21.947Z,16.20
2023-02-23T01:36:51.039Z,16.13
2023-02-23T01:39:22.395Z,18.90
2023-02-23T01:41:54.376Z,23.00
2023-02-23T01:45:00.345Z,14.33
2023-02-23T01:47:30.044Z,14.83
2023-02-23T01:49:58.871Z,14.97
2023-02-23T01:52:27.709Z,15.23
2023-02-23T01:54:58.345Z,15.20
2023-02-23T01:57:27.291Z,19.20
2023-02-23T01:59:56.954Z,16.33
2023-02-23T02:02:34.071Z,16.27
2023-02-23T02:05:05.238Z,15.57
2023-02-23T02:07:36.442Z,15.53
2023-02-23T02:10:39.683Z,21.00
2023-02-23T02:13:10.687Z,17.83
2023-02-23T02:15:56.327Z,17.07
2023-02-23T02:18:32.490Z,17.73
2023-02-23T02:21:49.342Z,18.90
2023-02-23T02:24:57.304Z,20.23
2023-02-23T02:27:45.228Z,19.20
2023-02-23T02:30:40.848Z,24.43
2023-02-23T02:33:38.144Z,24.97
2023-02-23T02:37:05.083Z,25.43
2023-02-23T02:39:46.773Z,20.40
2023-02-23T02:42:22.730Z,32.27
2023-02-23T02:45:00.544Z,27.80
2023-02-23T02:47:34.063Z,24.53
2023-02-23T02:50:08.709Z,51.63
2023-02-23T02:52:41.764Z,28.10
2023-02-23T02:55:16.824Z,34.07
2023-02-23T02:57:47.563Z,22.77
2023-02-23T03:00:37.561Z,22.03
2023-02-23T03:03:23.938Z,11.17
2023-02-23T03:06:13.369Z,11.07
2023-02-23T03:09:07.432Z,10.47
2023-02-23T03:11:59.199Z,9.83
2023-02-23T03:14:52.397Z,10.00
2023-02-23T03:17:48.835Z,11.53
2023-02-23T03:20:43.341Z,11.17
2023-02-23T03:23:36.049Z,12.83
2023-02-23T03:26:27.843Z,12.83
2023-02-23T03:29:22.368Z,12.30
2023-02-23T03:32:16.400Z,12.00
2023-02-23T03:35:05.728Z,12.77
2023-02-23T03:37:58.650Z,11.40
2023-02-23T03:40:48.366Z,11.33
2023-02-23T03:43:37.901Z,10.73
2023-02-23T03:46:29.616Z,12.33
2023-02-23T03:49:18.999Z,12.13
2023-02-23T03:52:09.314Z,11.53
2023-02-23T03:55:11.708Z,12.03
2023-02-23T03:58:00.211Z,10.80
2023-02-23T04:00:49.593Z,10.43
2023-02-23T04:03:38.471Z,11.10
2023-02-23T04:06:27.428Z,10.70
2023-02-23T04:09:18.104Z,10.60
2023-02-23T04:12:09.440Z,11.37
2023-02-23T04:14:41.601Z,10.37
2023-02-23T04:17:10.391Z,14.97
2023-02-23T04:19:40.575Z,18.17
2023-02-23T04:22:09.155Z,20.97
2023-02-23T04:24:37.735Z,20.27
2023-02-23T04:27:06.533Z,12.50
2023-02-23T04:29:35.172Z,27.60
2023-02-23T04:32:03.808Z,23.33
2023-02-23T04:34:32.872Z,43.13
2023-02-23T04:37:02.923Z,46.67
2023-02-23T04:39:31.550Z,43.77
2023-02-23T04:42:00.092Z,30.57
2023-02-23T04:44:31.093Z,32.40
2023-02-23T04:47:00.300Z,30.87
2023-02-23T04:49:28.850Z,25.37
2023-02-23T04:51:57.521Z,29.90
2023-02-23T04:54:27.764Z,27.07
2023-02-23T04:56:56.432Z,22.10
2023-02-23T04:59:25.080Z,23.40
2023-02-23T05:01:53.655Z,29.60
2023-02-23T05:04:22.199Z,23.55
2023-02-23T05:06:50.754Z,38.03
2023-02-23T05:09:19.271Z,40.83
2023-02-23T05:11:49.459Z,43.07
2023-02-23T05:14:17.969Z,34.60
2023-02-23T05:16:46.552Z,35.47
2023-02-23T05:19:15.149Z,30.03
2023-02-23T05:21:43.840Z,30.00
2023-02-23T05:24:12.723Z,29.27
2023-02-23T05:26:41.246Z,23.10
2023-02-23T05:29:11.227Z,25.00
2023-02-23T05:31:39.788Z,25.83
2023-02-23T05:34:08.434Z,24.37
2023-02-23T05:36:37.217Z,25.63
2023-02-23T05:39:06.050Z,27.37
2023-02-23T05:41:34.580Z,27.03
2023-02-23T05:44:03.074Z,27.90
2023-02-23T05:46:33.058Z,29.03
2023-02-23T05:49:02.942Z,35.67
2023-02-23T05:51:33.880Z,40.47
2023-02-23T05:54:02.624Z,17.30
2023-02-23T05:56:31.434Z,53.23
2023-02-23T05:59:00.516Z,41.17
2023-02-23T06:01:29.677Z,32.20
2023-02-23T06:03:59.678Z,35.17
2023-02-23T06:06:28.653Z,30.77
2023-02-23T06:08:57.416Z,38.67
2023-02-23T06:11:26.037Z,29.27
2023-02-23T06:13:55.454Z,28.27
2023-02-23T06:16:24.416Z,30.40
2023-02-23T06:18:52.994Z,32.53
2023-02-23T06:21:23.146Z,28.47
2023-02-23T06:23:52.605Z,31.47
2023-02-23T06:26:21.955Z,33.27
2023-02-23T06:28:50.824Z,33.37
2023-02-23T06:31:19.664Z,33.03
2023-02-23T06:33:48.919Z,33.30
2023-02-23T06:36:17.797Z,26.77
2023-02-23T06:38:47.703Z,58.67
2023-02-23T06:41:16.312Z,31.33
2023-02-23T06:43:45.025Z,29.00
2023-02-23T06:46:13.574Z,30.03
2023-02-23T06:48:42.459Z,31.40
2023-02-23T06:51:11.173Z,34.80
2023-02-23T06:53:39.720Z,33.37
2023-02-23T06:56:12.440Z,42.50
2023-02-23T06:58:40.999Z,38.83
2023-02-23T07:01:10.141Z,38.60
2023-02-23T07:03:38.683Z,33.87
2023-02-23T07:06:07.488Z,35.37
2023-02-23T07:08:36.854Z,42.00
2023-02-23T07:11:11.471Z,38.93
2023-02-23T07:13:40.048Z,38.30
2023-02-23T07:16:09.668Z,34.07
2023-02-23T07:18:38.206Z,40.40
2023-02-23T07:21:07.974Z,35.97
2023-02-23T07:23:36.539Z,33.17
2023-02-23T07:26:05.168Z,40.53
2023-02-23T07:28:35.098Z,37.80
2023-02-23T07:31:03.749Z,37.60
2023-02-23T07:33:32.742Z,38.80
2023-02-23T07:36:01.382Z,38.03
2023-02-23T07:38:30.335Z,36.80
2023-02-23T07:40:59.148Z,36.80
2023-02-23T07:43:27.781Z,33.87
2023-02-23T07:46:01.067Z,35.10
2023-02-23T07:48:30.253Z,43.27
2023-02-23T07:50:58.917Z,48.33
2023-02-23T07:53:28.170Z,35.23
2023-02-23T07:56:00.944Z,45.20
2023-02-23T07:58:30.808Z,44.80
2023-02-23T08:01:01.479Z,46.67
2023-02-23T08:03:30.224Z,43.27
2023-02-23T08:05:59.022Z,39.93
2023-02-23T08:08:28.343Z,38.87
2023-02-23T08:11:02.292Z,44.17
2023-02-23T08:13:32.065Z,47.50
2023-02-23T08:16:02.147Z,47.57
2023-02-23T08:18:30.930Z,45.00
2023-02-23T08:21:00.644Z,37.03
2023-02-23T08:23:31.139Z,42.80
2023-02-23T08:26:00.882Z,49.87
2023-02-23T08:28:30.611Z,36.10
2023-02-23T08:30:59.646Z,28.73
2023-02-23T08:33:31.798Z,36.10
2023-02-23T08:36:02.938Z,35.27
2023-02-23T08:38:32.003Z,37.37
2023-02-23T08:41:02.335Z,55.20
2023-02-23T08:43:31.157Z,52.43
2023-02-23T08:45:59.989Z,63.23
2023-02-23T08:48:29.996Z,64.07
2023-02-23T08:50:59.082Z,63.23
2023-02-23T08:53:29.779Z,55.63
2023-02-23T08:55:59.620Z,57.10
2023-02-23T08:58:28.503Z,59.33
2023-02-23T09:00:57.052Z,56.70
2023-02-23T09:03:28.689Z,46.27
2023-02-23T09:06:08.568Z,53.07
2023-02-23T09:08:37.236Z,61.60
2023-02-23T09:11:05.928Z,78.50
2023-02-23T09:13:34.763Z,79.33
2023-02-23T09:16:04.022Z,72.30
2023-02-23T09:18:32.820Z,85.00
2023-02-23T09:21:07.212Z,75.97
2023-02-23T09:23:35.964Z,78.83
2023-02-23T09:26:05.637Z,83.27
2023-02-23T09:28:36.092Z,90.23
2023-02-23T09:31:07.663Z,90.10
2023-02-23T09:33:36.422Z,83.57
2023-02-23T09:36:12.926Z,97.10
2023-02-23T09:38:41.801Z,71.17
2023-02-23T09:41:49.962Z,87.87
2023-02-23T09:44:30.010Z,81.53
2023-02-23T09:47:11.561Z,80.70
2023-02-23T09:49:43.858Z,88.53
2023-02-23T09:52:19.595Z,88.67
2023-02-23T09:54:48.581Z,83.33
2023-02-23T09:57:21.418Z,81.80
2023-02-23T09:59:50.144Z,86.40
2023-02-23T10:02:27.274Z,100.63
2023-02-23T10:05:01.017Z,104.57
2023-02-23T10:07:43.705Z,84.30
2023-02-23T10:10:24.639Z,83.47
2023-02-23T10:13:06.093Z,82.93
2023-02-23T10:15:42.047Z,132.03
2023-02-23T10:18:23.012Z,115.83
2023-02-23T10:20:59.774Z,129.40
2023-02-23T10:23:35.020Z,112.47
2023-02-23T10:26:08.874Z,16.52
2023-02-23T10:28:39.234Z,23.88
2023-02-23T10:31:24.746Z,29.33
2023-02-23T10:33:56.445Z,22.40
2023-02-23T10:36:35.362Z,24.23
2023-02-23T10:39:07.981Z,24.10
2023-02-23T10:41:37.077Z,26.37
2023-02-23T10:44:16.771Z,28.40
2023-02-23T10:46:47.981Z,30.97
2023-02-23T10:49:23.009Z,39.20
2023-02-23T10:51:52.462Z,33.53
2023-02-23T10:54:44.865Z,47.13
2023-02-23T10:57:20.985Z,52.03
2023-02-23T11:00:33.449Z,55.33
2023-02-23T11:03:04.686Z,103.43
2023-02-23T11:05:47.237Z,48.53
2023-02-23T11:08:34.437Z,64.30
2023-02-23T11:11:08.523Z,63.73
2023-02-23T11:13:42.680Z,51.63
2023-02-23T11:16:14.586Z,45.93
2023-02-23T11:18:45.067Z,39.67
2023-02-23T11:21:19.421Z,32.53
2023-02-23T11:23:51.156Z,36.27
2023-02-23T11:26:37.404Z,28.60
2023-02-23T11:29:16.567Z,40.30
2023-02-23T11:31:51.107Z,30.73
2023-02-23T11:34:26.052Z,27.10
2023-02-23T11:37:04.218Z,39.43
2023-02-23T11:39:33.022Z,27.53
2023-02-23T11:42:25.627Z,28.57
2023-02-23T11:45:04.053Z,31.37
2023-02-23T11:47:35.709Z,41.07
2023-02-23T11:50:06.361Z,34.60
2023-02-23T11:52:36.823Z,30.37
2023-02-23T11:55:09.016Z,25.43
2023-02-23T11:57:39.046Z,25.03
2023-02-23T12:00:15.569Z,24.17
2023-02-23T12:02:53.894Z,19.97
2023-02-23T12:05:25.366Z,24.03
2023-02-23T12:07:59.643Z,25.07
2023-02-23T12:10:32.441Z,20.57
2023-02-23T12:13:11.402Z,42.03
2023-02-23T12:15:49.287Z,23.37
2023-02-23T12:18:28.383Z,18.73
2023-02-23T12:21:02.488Z,35.20
2023-02-23T12:23:35.165Z,21.13
2023-02-23T12:26:07.776Z,23.90
2023-02-23T12:28:41.988Z,28.03
2023-02-23T12:31:24.868Z,23.30
2023-02-23T12:33:58.718Z,23.40
2023-02-23T12:36:35.363Z,24.30
2023-02-23T12:39:09.984Z,24.20
2023-02-23T12:41:44.188Z,25.77
2023-02-23T12:44:23.823Z,23.93
2023-02-23T12:46:55.269Z,20.50
2023-02-23T12:49:32.348Z,19.43
2023-02-23T12:52:10.742Z,24.27
2023-02-23T12:54:39.541Z,26.70
2023-02-23T12:57:16.302Z,23.97
2023-02-23T13:00:24.300Z,31.63
2023-02-23T13:03:08.798Z,25.40
2023-02-23T13:05:43.415Z,26.23
2023-02-23T13:08:22.292Z,23.03
2023-02-23T13:11:03.878Z,30.50
2023-02-23T13:13:39.113Z,31.00
2023-02-23T13:16:17.360Z,27.57
2023-02-23T13:18:51.603Z,26.10
2023-02-23T13:21:28.212Z,26.27
2023-02-23T13:24:01.363Z,26.50
2023-02-23T13:26:39.005Z,30.13
2023-02-23T13:29:16.568Z,24.57
2023-02-23T13:31:46.866Z,22.70
2023-02-23T13:34:26.598Z,26.97
2023-02-23T13:36:56.253Z,30.63
2023-02-23T13:39:48.019Z,28.38
2023-02-23T13:42:37.966Z,20.67
2023-02-23T13:45:33.504Z,35.87
2023-02-23T13:48:08.416Z,36.77
2023-02-23T13:50:47.220Z,37.63
2023-02-23T13:53:35.110Z,31.83
2023-02-23T13:56:08.594Z,30.40
2023-02-23T13:58:38.048Z,26.10
2023-02-23T14:01:12.364Z,22.37
2023-02-23T14:03:48.883Z,20.90
2023-02-23T14:06:20.959Z,22.13
2023-02-23T14:08:57.192Z,23.57
2023-02-23T14:11:52.401Z,38.50
2023-02-23T14:14:43.138Z,28.03
2023-02-23T14:17:28.235Z,30.67
2023-02-23T14:20:27.876Z,28.73
2023-02-23T14:23:29.688Z,27.43
2023-02-23T14:26:27.904Z,22.50
2023-02-23T14:29:12.734Z,24.30
2023-02-23T14:31:56.403Z,25.87
2023-02-23T14:34:26.012Z,29.67
2023-02-23T14:36:56.211Z,33.17
2023-02-23T14:39:30.019Z,22.13
2023-02-23T14:42:01.531Z,34.20
2023-02-23T14:44:31.968Z,25.63
2023-02-23T14:47:05.702Z,23.30
2023-02-23T14:49:38.074Z,19.80
2023-02-23T14:52:09.850Z,19.53
2023-02-23T14:54:41.972Z,24.03
2023-02-23T14:57:20.795Z,29.43
2023-02-23T14:59:55.623Z,25.63
2023-02-23T15:02:26.175Z,30.10
2023-02-23T15:04:55.498Z,25.97
2023-02-23T15:07:32.401Z,28.33
2023-02-23T15:10:06.989Z,27.20
2023-02-23T15:12:38.848Z,37.83
2023-02-23T15:15:17.384Z,27.67
2023-02-23T15:17:49.408Z,34.00
2023-02-23T15:20:20.405Z,31.37
2023-02-23T15:22:57.753Z,34.93
2023-02-23T15:25:36.550Z,34.57
2023-02-23T15:28:29.852Z,32.97
2023-02-23T15:31:02.097Z,36.73
2023-02-23T15:33:43.297Z,37.03
2023-02-23T15:36:21.345Z,43.03
2023-02-23T15:38:53.380Z,31.77
2023-02-23T15:41:30.620Z,37.07
2023-02-23T15:44:07.488Z,43.57
2023-02-23T15:46:38.056Z,44.57
2023-02-23T15:49:07.851Z,45.20
2023-02-23T15:51:39.568Z,45.17
2023-02-23T15:54:20.773Z,48.20
2023-02-23T15:56:54.838Z,44.67
2023-02-23T15:59:28.937Z,45.03
2023-02-23T16:02:00.188Z,43.97
2023-02-23T16:04:33.959Z,44.10
2023-02-23T16:07:16.152Z,50.93
2023-02-23T16:09:51.293Z,68.17
2023-02-23T16:12:26.262Z,44.40
2023-02-23T16:14:56.695Z,62.13
2023-02-23T16:17:30.480Z,62.10
2023-02-23T16:20:17.706Z,78.17
2023-02-23T16:22:47.913Z,66.87
2023-02-23T16:25:19.780Z,66.67
2023-02-23T16:27:59.621Z,56.33
2023-02-23T16:30:40.707Z,66.60
2023-02-23T16:33:19.948Z,62.27
2023-02-23T16:35:50.748Z,61.80
2023-02-23T16:38:25.923Z,61.77
2023-02-23T16:40:54.824Z,55.00
2023-02-23T16:43:24.872Z,48.93
2023-02-23T16:45:53.572Z,50.17
2023-02-23T16:48:23.099Z,60.50
2023-02-23T16:50:51.967Z,55.80
2023-02-23T16:53:20.487Z,62.83
2023-02-23T16:55:54.269Z,62.70
2023-02-23T16:58:27.240Z,56.07
2023-02-23T17:00:56.369Z,62.10
2023-02-23T17:03:27.158Z,61.27
2023-02-23T17:05:56.142Z,62.77
2023-02-23T17:08:24.814Z,78.53
2023-02-23T17:10:56.034Z,67.37
2023-02-23T17:13:29.261Z,72.33
2023-02-23T17:15:59.379Z,66.00
2023-02-23T17:18:29.610Z,62.13
2023-02-23T17:20:59.826Z,57.47
2023-02-23T17:23:39.162Z,73.37
2023-02-23T17:26:08.487Z,58.70
2023-02-23T17:28:38.530Z,63.83
2023-02-23T17:31:08.002Z,51.33
2023-02-23T17:33:37.969Z,56.60
2023-02-23T17:36:09.695Z,57.20
2023-02-23T17:38:38.765Z,54.97
2023-02-23T17:41:08.865Z,57.63
2023-02-23T17:43:38.971Z,53.83
2023-02-23T17:46:08.303Z,69.90
2023-02-23T17:48:37.097Z,66.73
2023-02-23T17:51:12.296Z,63.40
2023-02-23T17:53:41.691Z,53.40
2023-02-23T17:56:11.165Z,53.90
2023-02-23T17:58:43.345Z,49.43
2023-02-23T18:01:12.188Z,57.57
2023-02-23T18:03:48.408Z,53.03
2023-02-23T18:06:17.135Z,56.20
2023-02-23T18:08:45.983Z,61.33
2023-02-23T18:11:18.905Z,52.43
2023-02-23T18:13:51.449Z,69.03
2023-02-23T18:16:21.825Z,58.67
2023-02-23T18:18:50.922Z,63.70
2023-02-23T18:21:21.964Z,75.17
2023-02-23T18:23:51.022Z,63.93
2023-02-23T18:26:21.907Z,71.77
2023-02-23T18:28:52.659Z,68.77
2023-02-23T18:31:24.404Z,72.90
2023-02-23T18:33:57.462Z,70.13
2023-02-23T18:36:32.735Z,75.37
2023-02-23T18:39:02.171Z,61.30
2023-02-23T18:41:47.355Z,73.60
2023-02-23T18:44:22.168Z,78.73
2023-02-23T18:46:51.499Z,69.27
2023-02-23T18:49:22.211Z,82.07
2023-02-23T18:51:51.418Z,69.63
2023-02-23T18:54:22.732Z,67.83
2023-02-23T18:56:56.144Z,70.10
2023-02-23T18:59:26.390Z,78.03
2023-02-23T19:01:55.091Z,98.47
2023-02-23T19:04:23.780Z,101.93
2023-02-23T19:07:10.402Z,98.80
2023-02-23T19:09:41.472Z,87.03
2023-02-23T19:12:11.655Z,89.50
2023-02-23T19:14:49.902Z,81.93
2023-02-23T19:17:22.637Z,71.70
2023-02-23T19:19:51.524Z,63.53
2023-02-23T19:22:24.525Z,58.23
2023-02-23T19:24:53.084Z,68.43
2023-02-23T19:27:21.934Z,76.87
2023-02-23T19:29:52.059Z,73.30
2023-02-23T19:32:20.708Z,56.23
2023-02-23T19:34:49.635Z,63.43
2023-02-23T19:37:18.338Z,62.90
2023-02-23T19:39:47.237Z,64.63
2023-02-23T19:42:18.567Z,65.00
2023-02-23T19:44:47.324Z,64.30
2023-02-23T19:47:17.420Z,65.97
2023-02-23T19:49:46.240Z,67.30
2023-02-23T19:52:14.922Z,74.97
2023-02-23T19:54:44.931Z,72.00
2023-02-23T19:57:13.623Z,70.60
2023-02-23T19:59:42.922Z,67.53
2023-02-23T20:02:12.745Z,70.53
2023-02-23T20:04:43.212Z,66.87
2023-02-23T20:07:12.020Z,58.20
2023-02-23T20:09:40.797Z,61.67
2023-02-23T20:12:09.825Z,60.87
2023-02-23T20:14:39.684Z,68.57
2023-02-23T20:17:09.201Z,64.43
2023-02-23T20:19:37.782Z,61.83
2023-02-23T20:22:09.018Z,46.97
2023-02-23T20:24:40.039Z,49.07
2023-02-23T20:27:09.376Z,47.73
2023-02-23T20:29:38.002Z,44.30
2023-02-23T20:32:07.750Z,46.67
2023-02-23T20:34:39.483Z,51.47
2023-02-23T20:37:09.657Z,49.03
2023-02-23T20:39:38.484Z,42.83
2023-02-23T20:42:07.132Z,39.77
2023-02-23T20:44:35.758Z,42.27
2023-02-23T20:47:10.015Z,54.27
2023-02-23T20:49:39.262Z,59.70
2023-02-23T20:52:09.325Z,64.00
2023-02-23T20:54:40.030Z,75.27
2023-02-23T20:57:09.328Z,65.40
2023-02-23T20:59:49.799Z,61.20
2023-02-23T21:02:18.706Z,65.67
2023-02-23T21:04:48.309Z,57.63
2023-02-23T21:07:18.723Z,40.03
2023-02-23T21:09:47.650Z,33.33
2023-02-23T21:12:16.376Z,46.80
2023-02-23T21:14:44.864Z,53.07
2023-02-23T21:17:13.464Z,54.77
2023-02-23T21:19:41.995Z,55.53
2023-02-23T21:22:14.789Z,66.17
2023-02-23T21:24:45.379Z,63.07
2023-02-23T21:27:14.025Z,40.70
2023-02-23T21:29:43.244Z,64.07
2023-02-23T21:32:16.969Z,57.23
2023-02-23T21:34:46.074Z,52.83
2023-02-23T21:37:14.590Z,55.53
2023-02-23T21:39:46.842Z,52.77
2023-02-23T21:42:15.846Z,40.83
2023-02-23T21:44:45.890Z,45.83
2023-02-23T21:47:15.182Z,50.97
2023-02-23T21:49:49.476Z,45.37
2023-02-23T21:52:18.665Z,59.33
2023-02-23T21:54:52.085Z,55.27
2023-02-23T21:57:22.890Z,49.70
2023-02-23T21:59:52.314Z,53.40
2023-02-23T22:02:21.615Z,58.63
2023-02-23T22:04:54.163Z,57.00
2023-02-23T22:07:23.142Z,55.23
2023-02-23T22:09:56.241Z,55.80
2023-02-23T22:12:28.015Z,54.10
2023-02-23T22:14:57.160Z,55.23
2023-02-23T22:17:26.378Z,54.07
2023-02-23T22:19:55.278Z,49.40
2023-02-23T22:22:23.768Z,51.90
2023-02-23T22:24:52.492Z,41.97
2023-02-23T22:27:22.666Z,49.07
2023-02-23T22:29:52.111Z,46.97
2023-02-23T22:32:21.780Z,45.87
2023-02-23T22:34:50.406Z,47.72
2023-02-23T22:37:22.176Z,30.00
2023-02-23T22:39:51.237Z,31.97
2023-02-23T22:42:19.865Z,56.33
2023-02-23T22:44:50.333Z,53.50
2023-02-23T22:47:19.015Z,44.10
2023-02-23T22:49:48.584Z,48.37
2023-02-23T22:52:17.112Z,52.10
2023-02-23T22:54:48.203Z,55.33
2023-02-23T22:57:16.755Z,49.47
2023-02-23T22:59:54.861Z,49.10
2023-02-23T23:02:24.968Z,55.27
2023-02-23T23:04:54.411Z,50.73
2023-02-23T23:07:22.996Z,49.23
2023-02-23T23:09:51.906Z,68.23
2023-02-23T23:12:20.454Z,65.57
2023-02-23T23:14:49.070Z,67.83
2023-02-23T23:17:17.978Z,61.57
2023-02-23T23:19:50.480Z,56.57
2023-02-23T23:22:20.382Z,49.30
2023-02-23T23:24:49.208Z,49.73
2023-02-23T23:27:19.890Z,56.37
2023-02-23T23:29:50.071Z,55.07
2023-02-23T23:32:27.938Z,55.47
2023-02-23T23:35:00.103Z,57.80
2023-02-23T23:37:29.712Z,66.03
2023-02-23T23:40:00.410Z,58.53
2023-02-23T23:42:28.940Z,57.23
2023-02-23T23:44:57.827Z,52.17
2023-02-23T23:47:27.268Z,51.90
2023-02-23T23:49:57.290Z,61.97
2023-02-23T23:52:26.010Z,50.17
2023-02-23T23:54:54.702Z,47.10
2023-02-23T23:57:23.398Z,47.43
2023-02-23T23:59:52.238Z,57.23
